createdAt,value
2023-08-10T00:00:33.607Z,21.05
2023-08-10T00:03:01.167Z,21.38
2023-08-10T00:05:29.298Z,20.86
2023-08-10T00:07:56.802Z,21.01
2023-08-10T00:10:24.136Z,21.07
2023-08-10T00:12:51.394Z,21.23
2023-08-10T00:15:19.141Z,21.24
2023-08-10T00:17:46.287Z,21.29
2023-08-10T00:20:14.120Z,21.27
2023-08-10T00:22:41.337Z,21.27
2023-08-10T00:25:08.925Z,21.00
2023-08-10T00:27:39.889Z,21.18
2023-08-10T00:30:10.956Z,21.14
2023-08-10T00:32:38.468Z,21.08
2023-08-10T00:35:06.044Z,21.23
2023-08-10T00:37:33.157Z,21.25
2023-08-10T00:40:00.376Z,21.36
2023-08-10T00:42:28.345Z,21.41
2023-08-10T00:44:55.675Z,21.35
2023-08-10T00:47:22.889Z,21.29
2023-08-10T00:49:50.128Z,21.30
2023-08-10T00:52:17.578Z,21.02
2023-08-10T00:54:45.020Z,20.86
2023-08-10T00:57:12.550Z,20.77
2023-08-10T00:59:40.210Z,20.19
2023-08-10T01:02:07.994Z,20.34
2023-08-10T01:04:35.448Z,20.54
2023-08-10T01:07:19.041Z,20.67
2023-08-10T01:09:56.104Z,20.78
2023-08-10T01:12:33.275Z,20.82
2023-08-10T01:15:17.646Z,20.73
2023-08-10T01:17:52.188Z,20.93
2023-08-10T01:20:24.682Z,20.95
2023-08-10T01:23:02.047Z,21.01
2023-08-10T01:25:30.629Z,20.81
2023-08-10T01:27:58.424Z,20.94
2023-08-10T01:30:25.898Z,20.98
2023-08-10T01:32:54.126Z,20.91
2023-08-10T01:35:21.696Z,20.75
2023-08-10T01:37:48.855Z,20.22
2023-08-10T01:40:17.462Z,20.27
2023-08-10T01:42:45.840Z,19.83
2023-08-10T01:45:14.091Z,20.10
2023-08-10T01:47:58.230Z,19.71
2023-08-10T01:50:27.840Z,19.77
2023-08-10T01:53:09.327Z,19.69
2023-08-10T01:55:37.148Z,19.63
2023-08-10T01:58:04.955Z,19.61
2023-08-10T02:00:34.681Z,19.27
2023-08-10T02:03:01.813Z,18.52
2023-08-10T02:05:29.119Z,19.07
2023-08-10T02:07:56.346Z,18.87
2023-08-10T02:10:23.834Z,18.74
2023-08-10T02:12:51.658Z,19.21
2023-08-10T02:15:19.490Z,19.33
2023-08-10T02:17:46.635Z,19.38
2023-08-10T02:20:14.299Z,19.33
2023-08-10T02:22:52.582Z,18.96
2023-08-10T02:25:21.206Z,19.35
2023-08-10T02:27:51.861Z,19.13
2023-08-10T02:30:19.919Z,19.08
2023-08-10T02:32:47.582Z,19.13
2023-08-10T02:35:15.656Z,19.08
2023-08-10T02:37:43.172Z,19.22
2023-08-10T02:40:13.025Z,19.07
2023-08-10T02:42:41.346Z,19.46
2023-08-10T02:45:10.237Z,19.28
2023-08-10T02:47:37.954Z,19.25
2023-08-10T02:50:08.378Z,19.39
2023-08-10T02:52:37.644Z,19.35
2023-08-10T02:55:05.379Z,19.42
2023-08-10T02:57:32.908Z,19.34
2023-08-10T03:00:00.420Z,19.46
2023-08-10T03:02:29.847Z,19.49
2023-08-10T03:05:00.774Z,19.35
2023-08-10T03:07:29.116Z,19.27
2023-08-10T03:09:57.406Z,19.22
2023-08-10T03:12:27.834Z,19.28
2023-08-10T03:14:55.458Z,19.05
2023-08-10T03:17:22.654Z,19.06
2023-08-10T03:19:52.392Z,19.03
2023-08-10T03:22:21.808Z,18.91
2023-08-10T03:24:49.312Z,18.76
2023-08-10T03:27:17.393Z,18.88
2023-08-10T03:29:45.571Z,19.13
2023-08-10T03:32:12.795Z,19.19
2023-08-10T03:34:40.002Z,19.17
2023-08-10T03:37:07.190Z,18.92
2023-08-10T03:39:34.383Z,19.22
2023-08-10T03:42:01.829Z,19.09
2023-08-10T03:44:28.972Z,18.72
2023-08-10T03:46:56.119Z,18.88
2023-08-10T03:49:24.264Z,18.90
2023-08-10T03:51:52.165Z,19.16
2023-08-10T03:54:19.458Z,19.18
2023-08-10T03:56:46.660Z,19.09
2023-08-10T03:59:15.113Z,18.85
2023-08-10T04:01:42.815Z,19.08
2023-08-10T04:04:09.979Z,18.79
2023-08-10T04:06:37.433Z,18.85
2023-08-10T04:09:06.168Z,19.27
2023-08-10T04:11:33.952Z,19.28
2023-08-10T04:14:01.143Z,19.38
2023-08-10T04:16:28.347Z,19.45
2023-08-10T04:18:55.869Z,19.52
2023-08-10T04:21:23.148Z,19.57
2023-08-10T04:23:50.301Z,19.54
2023-08-10T04:26:17.411Z,19.40
2023-08-10T04:28:44.671Z,19.42
2023-08-10T04:31:11.966Z,19.23
2023-08-10T04:33:39.152Z,19.48
2023-08-10T04:36:06.774Z,19.49
2023-08-10T04:38:34.269Z,19.53
2023-08-10T04:41:01.468Z,19.52
2023-08-10T04:43:28.645Z,19.45
2023-08-10T04:45:55.966Z,19.51
2023-08-10T04:48:23.149Z,19.58
2023-08-10T04:50:50.268Z,19.53
2023-08-10T04:53:17.879Z,19.56
2023-08-10T04:55:45.029Z,19.06
2023-08-10T04:58:12.297Z,19.14
2023-08-10T05:00:39.774Z,19.52
2023-08-10T05:03:07.009Z,19.46
2023-08-10T05:05:34.275Z,19.39
2023-08-10T05:08:01.787Z,19.39
2023-08-10T05:10:28.954Z,19.33
2023-08-10T05:12:56.146Z,19.15
2023-08-10T05:15:23.323Z,19.13
2023-08-10T05:17:50.571Z,19.13
2023-08-10T05:20:17.781Z,19.10
2023-08-10T05:22:45.008Z,19.38
2023-08-10T05:25:16.069Z,19.11
2023-08-10T05:27:46.402Z,19.37
2023-08-10T05:30:13.855Z,19.14
2023-08-10T05:32:45.034Z,19.47
2023-08-10T05:35:13.011Z,19.46
2023-08-10T05:37:40.399Z,19.39
2023-08-10T05:40:11.232Z,19.42
2023-08-10T05:42:39.703Z,19.40
2023-08-10T05:45:10.456Z,19.35
2023-08-10T05:47:37.991Z,19.31
2023-08-10T05:50:05.934Z,19.33
2023-08-10T05:52:33.309Z,19.20
2023-08-10T05:55:00.491Z,19.33
2023-08-10T05:57:27.682Z,19.12
2023-08-10T05:59:55.268Z,19.24
2023-08-10T06:02:22.514Z,19.20
2023-08-10T06:04:53.571Z,19.18
2023-08-10T06:07:21.159Z,19.27
2023-08-10T06:09:48.362Z,19.36
2023-08-10T06:12:17.562Z,19.13
2023-08-10T06:14:45.397Z,19.04
2023-08-10T06:17:13.024Z,19.35
2023-08-10T06:19:40.778Z,19.19
2023-08-10T06:22:08.098Z,19.35
2023-08-10T06:24:35.571Z,19.33
2023-08-10T06:27:03.308Z,19.03
2023-08-10T06:29:30.490Z,19.40
2023-08-10T06:31:57.563Z,19.36
2023-08-10T06:34:24.812Z,19.24
2023-08-10T06:36:53.511Z,18.98
2023-08-10T06:39:20.788Z,19.33
2023-08-10T06:41:47.933Z,19.21
2023-08-10T06:44:15.129Z,19.35
2023-08-10T06:46:42.601Z,18.97
2023-08-10T06:49:09.925Z,19.40
2023-08-10T06:51:37.292Z,18.91
2023-08-10T06:54:04.750Z,19.21
2023-08-10T06:56:32.088Z,19.33
2023-08-10T07:01:29.670Z,19.46
2023-08-10T07:03:57.051Z,19.20
2023-08-10T07:06:24.469Z,19.56
2023-08-10T07:08:54.274Z,19.41
2023-08-10T07:11:21.941Z,19.56
2023-08-10T07:13:50.330Z,19.58
2023-08-10T07:16:18.058Z,19.65
2023-08-10T07:18:45.420Z,19.37
2023-08-10T07:21:12.567Z,18.96
2023-08-10T07:23:39.815Z,19.54
2023-08-10T07:26:07.104Z,19.50
2023-08-10T07:28:34.200Z,19.47
2023-08-10T07:31:01.974Z,19.43
2023-08-10T07:33:29.323Z,19.51
2023-08-10T07:35:56.876Z,19.60
2023-08-10T07:38:24.584Z,19.66
2023-08-10T07:40:51.772Z,19.75
2023-08-10T07:43:18.924Z,19.77
2023-08-10T07:45:47.374Z,19.86
2023-08-10T07:48:14.650Z,19.47
2023-08-10T07:50:41.862Z,19.37
2023-08-10T07:53:09.151Z,19.72
2023-08-10T07:55:36.223Z,19.67
2023-08-10T07:58:03.421Z,20.01
2023-08-10T08:00:30.675Z,20.00
2023-08-10T08:02:57.894Z,19.98
2023-08-10T08:05:25.182Z,19.63
2023-08-10T08:07:52.271Z,19.84
2023-08-10T08:10:19.636Z,19.93
2023-08-10T08:12:46.828Z,19.80
2023-08-10T08:15:14.155Z,20.08
2023-08-10T08:18:18.958Z,20.39
2023-08-10T08:20:46.128Z,20.48
2023-08-10T08:23:13.250Z,20.25
2023-08-10T08:25:40.927Z,20.53
2023-08-10T08:28:08.393Z,20.31
2023-08-10T08:30:35.682Z,20.45
2023-08-10T08:33:03.312Z,20.43
2023-08-10T08:35:31.069Z,20.67
2023-08-10T08:37:58.227Z,20.85
2023-08-10T08:40:25.604Z,20.69
2023-08-10T08:42:53.788Z,21.00
2023-08-10T08:45:22.012Z,21.03
2023-08-10T08:47:49.651Z,21.05
2023-08-10T08:50:17.364Z,20.94
2023-08-10T08:52:45.088Z,20.98
2023-08-10T08:55:13.331Z,21.05
2023-08-10T08:57:40.738Z,21.00
2023-08-10T09:00:08.837Z,21.27
2023-08-10T09:02:36.719Z,21.23
2023-08-10T09:05:04.661Z,21.21
2023-08-10T09:07:32.261Z,21.44
2023-08-10T09:09:59.804Z,21.49
2023-08-10T09:12:37.218Z,21.62
2023-08-10T09:15:12.912Z,21.50
2023-08-10T09:17:47.466Z,21.54
2023-08-10T09:20:24.053Z,21.50
2023-08-10T09:22:56.567Z,21.61
2023-08-10T09:25:25.722Z,21.50
2023-08-10T09:27:54.287Z,21.59
2023-08-10T09:30:21.842Z,21.40
2023-08-10T09:32:49.066Z,21.55
2023-08-10T09:35:18.583Z,21.57
2023-08-10T09:37:49.669Z,21.48
2023-08-10T09:40:18.257Z,21.55
2023-08-10T09:42:45.436Z,21.57
2023-08-10T09:45:14.470Z,21.61
2023-08-10T09:47:43.865Z,21.56
2023-08-10T09:50:13.618Z,21.59
2023-08-10T09:52:42.250Z,21.68
2023-08-10T09:55:12.518Z,21.78
2023-08-10T09:57:45.350Z,21.82
2023-08-10T10:00:20.432Z,21.87
2023-08-10T10:02:48.572Z,21.72
2023-08-10T10:05:30.845Z,21.85
2023-08-10T10:08:04.185Z,21.99
2023-08-10T10:10:33.311Z,22.08
2023-08-10T10:13:02.807Z,21.74
2023-08-10T10:15:30.965Z,22.19
2023-08-10T10:17:59.104Z,21.83
2023-08-10T10:20:26.785Z,22.23
2023-08-10T10:22:54.034Z,22.22
2023-08-10T10:25:21.517Z,22.48
2023-08-10T10:27:52.206Z,22.14
2023-08-10T10:30:23.428Z,22.57
2023-08-10T10:32:51.829Z,22.63
2023-08-10T10:35:33.063Z,22.66
2023-08-10T10:38:01.082Z,22.42
2023-08-10T10:40:28.812Z,22.70
2023-08-10T10:43:02.082Z,22.80
2023-08-10T10:45:30.587Z,22.77
2023-08-10T10:47:58.408Z,22.78
2023-08-10T10:50:32.213Z,22.75
2023-08-10T10:53:04.671Z,22.80
2023-08-10T10:55:35.530Z,22.89
2023-08-10T10:58:04.380Z,22.78
2023-08-10T11:00:32.108Z,22.67
2023-08-10T11:03:00.388Z,22.95
2023-08-10T11:05:28.792Z,23.01
2023-08-10T11:07:56.918Z,23.07
2023-08-10T11:10:24.105Z,23.12
2023-08-10T11:12:53.392Z,23.06
2023-08-10T11:15:22.895Z,23.09
2023-08-10T11:17:54.528Z,23.27
2023-08-10T11:20:23.081Z,23.38
2023-08-10T11:22:51.192Z,23.37
2023-08-10T11:25:21.137Z,23.29
2023-08-10T11:27:50.744Z,23.10
2023-08-10T11:30:20.217Z,23.22
2023-08-10T11:32:49.740Z,23.02
2023-08-10T11:35:26.353Z,23.16
2023-08-10T11:37:55.051Z,23.17
2023-08-10T11:40:24.140Z,22.95
2023-08-10T11:43:04.893Z,23.18
2023-08-10T11:45:32.228Z,23.17
2023-08-10T11:50:33.380Z,23.06
2023-08-10T11:53:20.241Z,22.70
2023-08-10T11:55:52.085Z,22.93
2023-08-10T11:58:20.691Z,22.74
2023-08-10T12:00:55.099Z,22.68
2023-08-10T12:03:35.428Z,22.92
2023-08-10T12:06:08.951Z,22.80
2023-08-10T12:08:40.264Z,22.79
2023-08-10T12:11:16.575Z,22.55
2023-08-10T12:13:49.888Z,22.46
2023-08-10T12:16:19.456Z,22.66
2023-08-10T12:18:48.216Z,22.51
2023-08-10T12:21:15.780Z,22.72
2023-08-10T12:23:43.741Z,22.41
2023-08-10T12:26:13.428Z,22.55
2023-08-10T12:28:40.957Z,22.21
2023-08-10T12:31:10.190Z,22.53
2023-08-10T12:33:41.964Z,22.25
2023-08-10T12:36:09.394Z,22.35
2023-08-10T12:38:36.502Z,22.45
2023-08-10T12:41:03.732Z,22.59
2023-08-10T12:43:30.920Z,22.64
2023-08-10T12:45:58.149Z,22.55
2023-08-10T12:48:25.554Z,22.58
2023-08-10T12:50:52.744Z,22.72
2023-08-10T12:53:20.081Z,22.74
2023-08-10T12:55:47.308Z,22.68
2023-08-10T12:58:16.516Z,22.70
2023-08-10T13:00:43.747Z,22.61
2023-08-10T13:03:11.108Z,22.55
2023-08-10T13:05:38.311Z,22.79
2023-08-10T13:08:05.699Z,22.73
2023-08-10T13:10:34.089Z,22.95
2023-08-10T13:13:01.359Z,22.89
2023-08-10T13:15:29.131Z,22.83
2023-08-10T13:17:56.526Z,23.08
2023-08-10T13:20:23.943Z,23.13
2023-08-10T13:22:52.019Z,23.17
2023-08-10T13:25:19.301Z,23.13
2023-08-10T13:27:46.747Z,23.12
2023-08-10T13:30:16.641Z,23.25
2023-08-10T13:32:44.991Z,23.03
2023-08-10T13:35:12.207Z,23.14
2023-08-10T13:37:39.843Z,23.41
2023-08-10T13:40:08.443Z,23.37
2023-08-10T13:42:35.756Z,23.55
2023-08-10T13:45:03.047Z,23.54
2023-08-10T13:47:30.429Z,23.56
2023-08-10T13:49:57.758Z,23.54
2023-08-10T13:52:24.949Z,23.67
2023-08-10T13:54:52.339Z,23.57
2023-08-10T13:57:20.118Z,23.77
2023-08-10T13:59:48.223Z,23.81
2023-08-10T14:02:16.665Z,23.79
2023-08-10T14:04:44.280Z,23.54
2023-08-10T14:07:13.502Z,23.58
2023-08-10T14:09:42.025Z,23.84
2023-08-10T14:12:09.780Z,23.82
2023-08-10T14:14:37.446Z,23.89
2023-08-10T14:17:04.944Z,23.82
2023-08-10T14:19:32.191Z,23.74
2023-08-10T14:21:59.404Z,23.84
2023-08-10T14:24:26.672Z,23.93
2023-08-10T14:26:54.219Z,23.88
2023-08-10T14:29:21.530Z,23.78
2023-08-10T14:31:48.740Z,23.92
2023-08-10T14:34:16.427Z,24.08
2023-08-10T14:36:43.691Z,23.72
2023-08-10T14:39:10.839Z,24.08
2023-08-10T14:41:38.107Z,24.10
2023-08-10T14:44:05.589Z,24.15
2023-08-10T14:46:33.158Z,23.86
2023-08-10T14:49:01.902Z,24.06
2023-08-10T14:51:29.085Z,24.05
2023-08-10T14:53:56.488Z,23.97
2023-08-10T14:56:23.694Z,24.09
2023-08-10T14:58:51.204Z,23.91
2023-08-10T15:01:18.388Z,24.12
2023-08-10T15:03:45.612Z,24.09
2023-08-10T15:06:14.038Z,24.25
2023-08-10T15:08:41.348Z,24.23
2023-08-10T15:11:11.581Z,24.33
2023-08-10T15:13:38.763Z,24.23
2023-08-10T15:16:06.268Z,24.25
2023-08-10T15:18:33.481Z,24.48
2023-08-10T15:21:00.707Z,24.07
2023-08-10T15:25:58.071Z,23.90
2023-08-10T15:28:25.264Z,24.17
2023-08-10T15:30:52.418Z,24.30
2023-08-10T15:33:19.639Z,24.09
2023-08-10T15:35:46.803Z,24.29
2023-08-10T15:38:13.977Z,24.40
2023-08-10T15:40:41.043Z,24.32
2023-08-10T15:43:08.275Z,24.60
2023-08-10T15:45:36.679Z,24.68
2023-08-10T15:48:04.722Z,24.54
2023-08-10T15:50:32.860Z,24.70
2023-08-10T15:52:59.996Z,24.67
2023-08-10T15:55:27.238Z,24.54
2023-08-10T15:57:54.363Z,24.39
2023-08-10T16:00:22.124Z,24.71
2023-08-10T16:02:49.424Z,24.60
2023-08-10T16:05:16.699Z,24.69
2023-08-10T16:07:44.321Z,24.66
2023-08-10T16:10:11.628Z,24.68
2023-08-10T16:12:39.421Z,24.68
2023-08-10T16:15:07.537Z,24.75
2023-08-10T16:17:35.626Z,24.75
2023-08-10T16:20:04.401Z,24.41
2023-08-10T16:22:31.709Z,24.82
2023-08-10T16:24:58.933Z,24.82
2023-08-10T16:27:26.080Z,24.86
2023-08-10T16:29:53.281Z,24.73
2023-08-10T16:32:20.559Z,24.91
2023-08-10T16:34:47.852Z,24.76
2023-08-10T16:37:15.155Z,24.96
2023-08-10T16:39:42.600Z,24.92
2023-08-10T16:42:09.945Z,24.95
2023-08-10T16:44:37.337Z,24.83
2023-08-10T16:47:04.607Z,24.95
2023-08-10T16:49:32.700Z,24.81
2023-08-10T16:52:01.461Z,24.92
2023-08-10T16:54:28.663Z,24.85
2023-08-10T16:56:56.786Z,24.94
2023-08-10T16:59:24.181Z,24.87
2023-08-10T17:01:51.790Z,24.84
2023-08-10T17:04:19.884Z,24.98
2023-08-10T17:06:47.076Z,24.81
2023-08-10T17:09:14.788Z,24.72
2023-08-10T17:11:41.980Z,24.66
2023-08-10T17:14:09.569Z,24.28
2023-08-10T17:16:36.796Z,24.57
2023-08-10T17:19:04.121Z,24.48
2023-08-10T17:21:31.328Z,24.41
2023-08-10T17:23:58.576Z,24.36
2023-08-10T17:26:25.797Z,24.32
2023-08-10T17:28:55.629Z,24.36
2023-08-10T17:31:22.984Z,24.36
2023-08-10T17:33:50.251Z,24.30
2023-08-10T17:36:17.398Z,24.05
2023-08-10T17:38:44.715Z,23.67
2023-08-10T17:41:11.885Z,23.71
2023-08-10T17:43:39.086Z,23.67
2023-08-10T17:46:07.361Z,23.40
2023-08-10T17:48:34.541Z,23.47
2023-08-10T17:51:01.993Z,23.60
2023-08-10T17:53:29.298Z,23.40
2023-08-10T17:55:56.589Z,23.25
2023-08-10T17:58:23.883Z,23.28
2023-08-10T18:00:51.302Z,22.79
2023-08-10T18:03:19.395Z,23.08
2023-08-10T18:05:46.653Z,22.64
2023-08-10T18:08:13.878Z,22.96
2023-08-10T18:10:41.145Z,22.86
2023-08-10T18:13:08.339Z,22.90
2023-08-10T18:15:35.643Z,22.98
2023-08-10T18:18:02.935Z,22.84
2023-08-10T18:20:30.070Z,22.85
2023-08-10T18:22:57.313Z,22.74
2023-08-10T18:25:25.672Z,22.83
2023-08-10T18:27:52.903Z,22.75
2023-08-10T18:30:20.572Z,22.71
2023-08-10T18:32:47.906Z,22.59
2023-08-10T18:35:15.811Z,22.73
2023-08-10T18:37:43.142Z,22.61
2023-08-10T18:40:11.168Z,22.62
2023-08-10T18:42:38.548Z,22.62
2023-08-10T18:45:06.467Z,22.56
2023-08-10T18:47:34.216Z,22.43
2023-08-10T18:50:01.601Z,22.38
2023-08-10T18:52:28.955Z,22.51
2023-08-10T18:54:56.168Z,22.33
2023-08-10T18:57:23.338Z,22.20
2023-08-10T18:59:50.572Z,22.27
2023-08-10T19:02:17.824Z,21.97
2023-08-10T19:04:45.236Z,22.31
2023-08-10T19:07:13.834Z,22.30
2023-08-10T19:09:41.131Z,22.29
2023-08-10T19:12:08.725Z,21.95
2023-08-10T19:14:36.171Z,22.24
2023-08-10T19:17:03.671Z,22.16
2023-08-10T19:19:30.718Z,21.97
2023-08-10T19:21:58.353Z,22.08
2023-08-10T19:24:25.565Z,21.94
2023-08-10T19:26:52.898Z,21.84
2023-08-10T19:29:20.130Z,21.83
2023-08-10T19:31:47.441Z,21.64
2023-08-10T19:34:14.680Z,21.69
2023-08-10T19:36:41.911Z,21.60
2023-08-10T19:39:09.085Z,21.57
2023-08-10T19:41:36.284Z,21.28
2023-08-10T19:44:03.937Z,21.31
2023-08-10T19:46:31.269Z,21.26
2023-08-10T19:48:58.433Z,20.79
2023-08-10T19:51:25.683Z,21.09
2023-08-10T19:53:53.203Z,20.52
2023-08-10T19:56:20.498Z,21.09
2023-08-10T19:58:47.792Z,21.07
2023-08-10T20:01:19.233Z,20.93
2023-08-10T20:03:48.458Z,20.76
2023-08-10T20:06:15.855Z,20.86
2023-08-10T20:08:43.112Z,20.38
2023-08-10T20:11:10.328Z,20.78
2023-08-10T20:13:37.530Z,20.37
2023-08-10T20:16:06.691Z,20.47
2023-08-10T20:18:34.306Z,20.37
2023-08-10T20:21:01.576Z,20.40
2023-08-10T20:23:29.145Z,20.38
2023-08-10T20:25:56.320Z,20.43
2023-08-10T20:28:23.538Z,20.24
2023-08-10T20:30:50.886Z,20.31
2023-08-10T20:33:18.809Z,20.31
2023-08-10T20:35:47.021Z,20.17
2023-08-10T20:38:14.229Z,20.28
2023-08-10T20:40:41.343Z,20.31
2023-08-10T20:43:08.573Z,20.12
2023-08-10T20:45:36.118Z,20.31
2023-08-10T20:48:03.692Z,20.31
2023-08-10T20:50:31.383Z,20.20
2023-08-10T20:52:58.563Z,19.95
2023-08-10T20:55:25.898Z,19.83
2023-08-10T20:57:53.160Z,19.56
2023-08-10T21:00:20.475Z,20.21
2023-08-10T21:02:47.717Z,20.00
2023-08-10T21:05:15.012Z,20.13
2023-08-10T21:07:42.277Z,20.03
2023-08-10T21:10:09.916Z,20.10
2023-08-10T21:12:37.176Z,20.09
2023-08-10T21:15:08.906Z,20.02
2023-08-10T21:17:38.041Z,19.77
2023-08-10T21:20:07.293Z,20.17
2023-08-10T21:22:34.799Z,20.19
2023-08-10T21:25:01.955Z,20.12
2023-08-10T21:27:29.278Z,20.14
2023-08-10T21:29:56.451Z,20.11
2023-08-10T21:32:23.631Z,19.93
2023-08-10T21:34:50.816Z,20.04
2023-08-10T21:37:17.926Z,20.05
2023-08-10T21:39:46.440Z,20.05
2023-08-10T21:42:14.875Z,19.91
2023-08-10T21:44:42.107Z,20.02
2023-08-10T21:47:09.593Z,19.81
2023-08-10T21:49:37.141Z,19.82
2023-08-10T21:52:04.395Z,19.85
2023-08-10T21:54:31.693Z,19.76
2023-08-10T21:57:01.158Z,19.67
2023-08-10T21:59:33.335Z,19.25
2023-08-10T22:02:00.807Z,19.44
2023-08-10T22:04:28.094Z,19.45
2023-08-10T22:06:55.320Z,19.31
2023-08-10T22:11:49.624Z,19.17
2023-08-10T22:14:16.843Z,19.17
2023-08-10T22:16:44.196Z,19.15
2023-08-10T22:19:11.572Z,18.64
2023-08-10T22:21:39.084Z,18.87
2023-08-10T22:24:06.671Z,19.04
2023-08-10T22:26:34.079Z,18.89
2023-08-10T22:29:01.232Z,18.74
2023-08-10T22:31:30.501Z,19.06
2023-08-10T22:33:57.798Z,19.01
2023-08-10T22:36:24.896Z,19.01
2023-08-10T22:38:52.161Z,18.80
2023-08-10T22:41:19.359Z,18.94
2023-08-10T22:43:46.602Z,18.76
2023-08-10T22:46:14.100Z,18.75
2023-08-10T22:48:41.310Z,18.54
2023-08-10T22:51:12.457Z,18.70
2023-08-10T22:53:39.744Z,18.46
2023-08-10T22:56:06.854Z,18.72
2023-08-10T22:58:34.520Z,18.75
2023-08-10T23:01:02.106Z,18.76
2023-08-10T23:03:29.273Z,18.57
2023-08-10T23:05:56.548Z,18.79
2023-08-10T23:08:23.966Z,18.79
2023-08-10T23:10:51.306Z,18.81
2023-08-10T23:13:18.825Z,18.78
2023-08-10T23:15:46.262Z,18.40
2023-08-10T23:18:13.527Z,18.81
2023-08-10T23:20:41.706Z,18.81
2023-08-10T23:23:08.931Z,18.52
2023-08-10T23:25:38.022Z,18.31
2023-08-10T23:28:05.731Z,18.41
2023-08-10T23:30:32.865Z,18.55
2023-08-10T23:33:00.185Z,18.77
2023-08-10T23:35:27.795Z,18.79
2023-08-10T23:37:57.419Z,18.61
2023-08-10T23:40:24.691Z,18.84
2023-08-10T23:42:51.930Z,18.39
2023-08-10T23:45:19.466Z,18.65
2023-08-10T23:47:47.585Z,18.75
2023-08-10T23:50:14.866Z,18.61
2023-08-10T23:52:44.201Z,18.76
2023-08-10T23:55:11.582Z,18.55
2023-08-10T23:57:38.966Z,18.70
